sensor_id;sensor_type;location;lat;lon;timestamp;pressure;altitude;pressure_sealevel;temperature;humidity
54389;BME280;40975;50.390;8.640;2023-06-22T00:00:17;99170.47;;;19.39;100.00
54389;BME280;40975;50.390;8.640;2023-06-22T00:02:42;99136.75;;;19.50;100.00
54389;BME280;40975;50.390;8.640;2023-06-22T00:05:07;99104.66;;;19.55;100.00
54389;BME280;40975;50.390;8.640;2023-06-22T00:07:33;99111.06;;;19.54;100.00
54389;BME280;40975;50.390;8.640;2023-06-22T00:09:58;99122.69;;;19.55;100.00
54389;BME280;40975;50.390;8.640;2023-06-22T00:12:23;99148.56;;;19.56;100.00
54389;BME280;40975;50.390;8.640;2023-06-22T00:14:49;99162.03;;;19.56;100.00
54389;BME280;40975;50.390;8.640;2023-06-22T00:17:14;99155.81;;;19.55;100.00
54389;BME280;40975;50.390;8.640;2023-06-22T00:19:39;99163.06;;;19.55;100.00
54389;BME280;40975;50.390;8.640;2023-06-22T00:22:05;99167.59;;;19.54;100.00
54389;BME280;40975;50.390;8.640;2023-06-22T00:24:30;99170.50;;;19.53;100.00
54389;BME280;40975;50.390;8.640;2023-06-22T00:26:56;99176.69;;;19.53;100.00
54389;BME280;40975;50.390;8.640;2023-06-22T00:29:21;99180.03;;;19.55;100.00
54389;BME280;40975;50.390;8.640;2023-06-22T00:31:46;99184.78;;;19.53;100.00
54389;BME280;40975;50.390;8.640;2023-06-22T00:34:12;99197.19;;;19.54;100.00
54389;BME280;40975;50.390;8.640;2023-06-22T00:36:37;99204.66;;;19.52;100.00
54389;BME280;40975;50.390;8.640;2023-06-22T00:39:06;99207.75;;;19.49;100.00
54389;BME280;40975;50.390;8.640;2023-06-22T00:41:32;99220.59;;;19.54;100.00
54389;BME280;40975;50.390;8.640;2023-06-22T00:43:57;99224.75;;;19.56;100.00
54389;BME280;40975;50.390;8.640;2023-06-22T00:46:24;99226.41;;;19.57;100.00
54389;BME280;40975;50.390;8.640;2023-06-22T00:48:51;99226.03;;;19.61;100.00
54389;BME280;40975;50.390;8.640;2023-06-22T00:51:17;99224.97;;;19.62;100.00
54389;BME280;40975;50.390;8.640;2023-06-22T00:53:42;99220.22;;;19.64;100.00
54389;BME280;40975;50.390;8.640;2023-06-22T00:56:10;99221.47;;;19.68;100.00
54389;BME280;40975;50.390;8.640;2023-06-22T00:58:38;99230.78;;;19.72;100.00
54389;BME280;40975;50.390;8.640;2023-06-22T01:01:06;99237.81;;;19.73;100.00
54389;BME280;40975;50.390;8.640;2023-06-22T01:03:31;99245.47;;;19.63;100.00
54389;BME280;40975;50.390;8.640;2023-06-22T01:06:02;99257.06;;;19.56;100.00
54389;BME280;40975;50.390;8.640;2023-06-22T01:08:57;99276.06;;;19.48;100.00
54389;BME280;40975;50.390;8.640;2023-06-22T01:11:31;99283.50;;;19.46;100.00
54389;BME280;40975;50.390;8.640;2023-06-22T01:14:06;99279.75;;;19.40;100.00
54389;BME280;40975;50.390;8.640;2023-06-22T01:16:38;99290.66;;;19.25;100.00
54389;BME280;40975;50.390;8.640;2023-06-22T01:22:03;99298.66;;;19.12;100.00
54389;BME280;40975;50.390;8.640;2023-06-22T01:24:33;99308.16;;;19.08;100.00
54389;BME280;40975;50.390;8.640;2023-06-22T01:27:24;99312.66;;;19.01;100.00
54389;BME280;40975;50.390;8.640;2023-06-22T01:29:52;99316.50;;;18.91;100.00
54389;BME280;40975;50.390;8.640;2023-06-22T01:32:20;99322.97;;;18.97;100.00
54389;BME280;40975;50.390;8.640;2023-06-22T01:34:47;99328.34;;;18.97;100.00
54389;BME280;40975;50.390;8.640;2023-06-22T01:37:14;99323.66;;;19.06;100.00
54389;BME280;40975;50.390;8.640;2023-06-22T01:39:40;99320.69;;;18.94;100.00
54389;BME280;40975;50.390;8.640;2023-06-22T01:42:06;99311.78;;;18.93;100.00
54389;BME280;40975;50.390;8.640;2023-06-22T01:44:31;99297.50;;;18.93;100.00
54389;BME280;40975;50.390;8.640;2023-06-22T01:46:59;99273.03;;;18.88;100.00
54389;BME280;40975;50.390;8.640;2023-06-22T01:49:24;99265.16;;;18.86;100.00
54389;BME280;40975;50.390;8.640;2023-06-22T01:51:50;99247.75;;;18.82;100.00
54389;BME280;40975;50.390;8.640;2023-06-22T01:54:15;99246.72;;;18.76;100.00
54389;BME280;40975;50.390;8.640;2023-06-22T01:56:41;99243.78;;;18.71;100.00
54389;BME280;40975;50.390;8.640;2023-06-22T01:59:15;99242.09;;;18.70;100.00
54389;BME280;40975;50.390;8.640;2023-06-22T02:01:48;99247.03;;;18.67;100.00
54389;BME280;40975;50.390;8.640;2023-06-22T02:04:21;99238.34;;;18.64;100.00
54389;BME280;40975;50.390;8.640;2023-06-22T02:06:51;99236.06;;;18.61;100.00
54389;BME280;40975;50.390;8.640;2023-06-22T02:09:20;99238.56;;;18.63;100.00
54389;BME280;40975;50.390;8.640;2023-06-22T02:11:47;99228.78;;;18.55;100.00
54389;BME280;40975;50.390;8.640;2023-06-22T02:14:14;99242.59;;;18.52;100.00
54389;BME280;40975;50.390;8.640;2023-06-22T02:16:41;99251.28;;;18.54;100.00
54389;BME280;40975;50.390;8.640;2023-06-22T02:19:07;99255.44;;;18.57;100.00
54389;BME280;40975;50.390;8.640;2023-06-22T02:21:33;99261.28;;;18.60;100.00
54389;BME280;40975;50.390;8.640;2023-06-22T02:23:58;99254.25;;;18.59;100.00
54389;BME280;40975;50.390;8.640;2023-06-22T02:26:25;99249.88;;;18.58;100.00
54389;BME280;40975;50.390;8.640;2023-06-22T02:28:52;99233.75;;;18.58;100.00
54389;BME280;40975;50.390;8.640;2023-06-22T02:31:18;99211.94;;;18.75;100.00
54389;BME280;40975;50.390;8.640;2023-06-22T02:33:44;99197.22;;;18.64;100.00
54389;BME280;40975;50.390;8.640;2023-06-22T02:36:10;99198.44;;;18.61;100.00
54389;BME280;40975;50.390;8.640;2023-06-22T02:38:40;99204.44;;;18.63;100.00
54389;BME280;40975;50.390;8.640;2023-06-22T02:41:16;99206.50;;;18.61;100.00
54389;BME280;40975;50.390;8.640;2023-06-22T02:43:46;99216.78;;;18.58;100.00
54389;BME280;40975;50.390;8.640;2023-06-22T02:46:13;99225.28;;;18.55;100.00
54389;BME280;40975;50.390;8.640;2023-06-22T02:48:40;99236.03;;;18.55;100.00
54389;BME280;40975;50.390;8.640;2023-06-22T02:51:06;99232.91;;;18.58;100.00
54389;BME280;40975;50.390;8.640;2023-06-22T02:53:34;99236.44;;;18.58;100.00
54389;BME280;40975;50.390;8.640;2023-06-22T02:56:01;99240.81;;;18.59;100.00
54389;BME280;40975;50.390;8.640;2023-06-22T02:58:28;99248.44;;;18.62;100.00
54389;BME280;40975;50.390;8.640;2023-06-22T03:00:54;99242.84;;;18.57;100.00
54389;BME280;40975;50.390;8.640;2023-06-22T03:03:19;99228.78;;;18.55;100.00
54389;BME280;40975;50.390;8.640;2023-06-22T03:05:45;99212.22;;;18.52;100.00
54389;BME280;40975;50.390;8.640;2023-06-22T03:08:10;99214.91;;;18.52;100.00
54389;BME280;40975;50.390;8.640;2023-06-22T03:10:35;99217.97;;;18.48;100.00
54389;BME280;40975;50.390;8.640;2023-06-22T03:13:01;99209.47;;;18.45;100.00
54389;BME280;40975;50.390;8.640;2023-06-22T03:15:26;99220.16;;;18.38;100.00
54389;BME280;40975;50.390;8.640;2023-06-22T03:17:54;99202.53;;;18.29;100.00
54389;BME280;40975;50.390;8.640;2023-06-22T03:20:21;99209.56;;;18.30;100.00
54389;BME280;40975;50.390;8.640;2023-06-22T03:22:47;99204.78;;;18.25;100.00
54389;BME280;40975;50.390;8.640;2023-06-22T03:25:13;99196.28;;;18.22;100.00
54389;BME280;40975;50.390;8.640;2023-06-22T03:27:42;99188.00;;;18.16;100.00
54389;BME280;40975;50.390;8.640;2023-06-22T03:30:11;99186.34;;;18.15;100.00
54389;BME280;40975;50.390;8.640;2023-06-22T03:32:36;99185.25;;;18.10;100.00
54389;BME280;40975;50.390;8.640;2023-06-22T03:35:04;99180.06;;;18.08;100.00
54389;BME280;40975;50.390;8.640;2023-06-22T03:37:32;99181.94;;;18.08;100.00
54389;BME280;40975;50.390;8.640;2023-06-22T03:39:58;99179.03;;;18.09;100.00
54389;BME280;40975;50.390;8.640;2023-06-22T03:42:23;99182.94;;;18.07;100.00
54389;BME280;40975;50.390;8.640;2023-06-22T03:44:49;99187.44;;;17.99;100.00
54389;BME280;40975;50.390;8.640;2023-06-22T03:47:14;99182.44;;;17.96;100.00
54389;BME280;40975;50.390;8.640;2023-06-22T03:49:40;99190.75;;;18.01;100.00
54389;BME280;40975;50.390;8.640;2023-06-22T03:52:06;99184.34;;;18.02;100.00
54389;BME280;40975;50.390;8.640;2023-06-22T03:54:31;99183.31;;;18.03;100.00
54389;BME280;40975;50.390;8.640;2023-06-22T03:56:57;99184.53;;;18.01;100.00
54389;BME280;40975;50.390;8.640;2023-06-22T03:59:23;99186.44;;;18.07;100.00
54389;BME280;40975;50.390;8.640;2023-06-22T04:01:48;99188.56;;;18.12;100.00
54389;BME280;40975;50.390;8.640;2023-06-22T04:04:14;99178.00;;;18.10;100.00
54389;BME280;40975;50.390;8.640;2023-06-22T04:06:39;99187.16;;;18.16;100.00
54389;BME280;40975;50.390;8.640;2023-06-22T04:09:05;99201.88;;;18.20;100.00
54389;BME280;40975;50.390;8.640;2023-06-22T04:11:31;99205.63;;;18.26;100.00
54389;BME280;40975;50.390;8.640;2023-06-22T04:13:56;99205.03;;;18.30;100.00
54389;BME280;40975;50.390;8.640;2023-06-22T04:16:21;99195.97;;;18.31;100.00
54389;BME280;40975;50.390;8.640;2023-06-22T04:18:47;99197.00;;;18.37;100.00
54389;BME280;40975;50.390;8.640;2023-06-22T04:21:13;99198.50;;;18.40;100.00
54389;BME280;40975;50.390;8.640;2023-06-22T04:23:38;99199.56;;;18.45;100.00
54389;BME280;40975;50.390;8.640;2023-06-22T04:26:03;99194.81;;;18.47;100.00
54389;BME280;40975;50.390;8.640;2023-06-22T04:28:29;99184.91;;;18.48;100.00
54389;BME280;40975;50.390;8.640;2023-06-22T04:30:54;99197.97;;;18.51;100.00
54389;BME280;40975;50.390;8.640;2023-06-22T04:33:22;99199.00;;;18.57;100.00
54389;BME280;40975;50.390;8.640;2023-06-22T04:35:47;99193.06;;;18.61;100.00
54389;BME280;40975;50.390;8.640;2023-06-22T04:38:13;99197.63;;;18.68;100.00
54389;BME280;40975;50.390;8.640;2023-06-22T04:40:39;99204.25;;;18.72;100.00
54389;BME280;40975;50.390;8.640;2023-06-22T04:43:04;99208.44;;;18.74;100.00
54389;BME280;40975;50.390;8.640;2023-06-22T04:45:31;99197.69;;;18.74;100.00
54389;BME280;40975;50.390;8.640;2023-06-22T04:47:57;99200.00;;;18.84;100.00
54389;BME280;40975;50.390;8.640;2023-06-22T04:50:23;99204.59;;;18.90;100.00
54389;BME280;40975;50.390;8.640;2023-06-22T04:52:50;99222.41;;;18.91;100.00
54389;BME280;40975;50.390;8.640;2023-06-22T04:55:15;99216.63;;;18.94;100.00
54389;BME280;40975;50.390;8.640;2023-06-22T04:57:46;99211.28;;;19.01;100.00
54389;BME280;40975;50.390;8.640;2023-06-22T05:00:19;99215.88;;;19.07;100.00
54389;BME280;40975;50.390;8.640;2023-06-22T05:02:48;99215.09;;;19.14;100.00
54389;BME280;40975;50.390;8.640;2023-06-22T05:05:14;99217.38;;;19.23;100.00
54389;BME280;40975;50.390;8.640;2023-06-22T05:07:46;99209.13;;;19.32;100.00
54389;BME280;40975;50.390;8.640;2023-06-22T05:10:13;99205.66;;;19.38;100.00
54389;BME280;40975;50.390;8.640;2023-06-22T05:12:40;99204.84;;;19.44;100.00
54389;BME280;40975;50.390;8.640;2023-06-22T05:15:08;99195.09;;;19.43;100.00
54389;BME280;40975;50.390;8.640;2023-06-22T05:17:35;99201.94;;;19.52;100.00
54389;BME280;40975;50.390;8.640;2023-06-22T05:20:01;99210.06;;;19.59;100.00
54389;BME280;40975;50.390;8.640;2023-06-22T05:22:26;99199.91;;;19.61;100.00
54389;BME280;40975;50.390;8.640;2023-06-22T05:24:52;99200.97;;;19.67;100.00
54389;BME280;40975;50.390;8.640;2023-06-22T05:27:17;99195.38;;;19.75;100.00
54389;BME280;40975;50.390;8.640;2023-06-22T05:29:42;99192.94;;;19.87;100.00
54389;BME280;40975;50.390;8.640;2023-06-22T05:32:08;99195.44;;;19.88;100.00
54389;BME280;40975;50.390;8.640;2023-06-22T05:34:33;99195.66;;;20.00;100.00
54389;BME280;40975;50.390;8.640;2023-06-22T05:36:59;99197.91;;;20.17;100.00
54389;BME280;40975;50.390;8.640;2023-06-22T05:39:24;99193.78;;;20.34;100.00
54389;BME280;40975;50.390;8.640;2023-06-22T05:41:51;99192.94;;;20.54;100.00
54389;BME280;40975;50.390;8.640;2023-06-22T05:44:16;99195.59;;;20.74;100.00
54389;BME280;40975;50.390;8.640;2023-06-22T05:46:43;99193.06;;;20.93;100.00
54389;BME280;40975;50.390;8.640;2023-06-22T05:49:10;99197.78;;;21.11;100.00
54389;BME280;40975;50.390;8.640;2023-06-22T05:51:35;99191.69;;;21.29;100.00
54389;BME280;40975;50.390;8.640;2023-06-22T05:54:00;99193.94;;;21.32;100.00
54389;BME280;40975;50.390;8.640;2023-06-22T05:56:25;99185.69;;;21.27;100.00
54389;BME280;40975;50.390;8.640;2023-06-22T05:58:51;99180.63;;;21.76;100.00
54389;BME280;40975;50.390;8.640;2023-06-22T06:01:16;99178.25;;;22.62;100.00
54389;BME280;40975;50.390;8.640;2023-06-22T06:03:42;99177.13;;;23.07;100.00
54389;BME280;40975;50.390;8.640;2023-06-22T06:06:07;99176.84;;;23.34;100.00
54389;BME280;40975;50.390;8.640;2023-06-22T06:08:33;99183.28;;;23.33;100.00
54389;BME280;40975;50.390;8.640;2023-06-22T06:10:58;99189.56;;;23.76;100.00
54389;BME280;40975;50.390;8.640;2023-06-22T06:13:24;99192.13;;;24.01;100.00
54389;BME280;40975;50.390;8.640;2023-06-22T06:15:49;99198.22;;;23.54;100.00
54389;BME280;40975;50.390;8.640;2023-06-22T06:18:17;99190.66;;;23.26;100.00
54389;BME280;40975;50.390;8.640;2023-06-22T06:20:42;99185.25;;;23.56;100.00
54389;BME280;40975;50.390;8.640;2023-06-22T06:23:07;99188.84;;;24.23;100.00
54389;BME280;40975;50.390;8.640;2023-06-22T06:25:33;99179.66;;;24.60;100.00
54389;BME280;40975;50.390;8.640;2023-06-22T06:27:58;99189.78;;;25.00;100.00
54389;BME280;40975;50.390;8.640;2023-06-22T06:30:23;99183.25;;;25.01;100.00
54389;BME280;40975;50.390;8.640;2023-06-22T06:32:49;99175.28;;;24.82;100.00
54389;BME280;40975;50.390;8.640;2023-06-22T06:35:15;99172.19;;;24.91;100.00
54389;BME280;40975;50.390;8.640;2023-06-22T06:37:46;99177.41;;;24.80;100.00
54389;BME280;40975;50.390;8.640;2023-06-22T06:40:12;99172.69;;;24.76;100.00
54389;BME280;40975;50.390;8.640;2023-06-22T06:42:39;99182.69;;;24.51;100.00
54389;BME280;40975;50.390;8.640;2023-06-22T06:45:27;99180.13;;;24.33;100.00
54389;BME280;40975;50.390;8.640;2023-06-22T06:47:53;99182.03;;;24.20;100.00
54389;BME280;40975;50.390;8.640;2023-06-22T06:50:19;99172.34;;;24.13;100.00
54389;BME280;40975;50.390;8.640;2023-06-22T06:52:45;99173.97;;;24.02;100.00
54389;BME280;40975;50.390;8.640;2023-06-22T06:55:10;99161.59;;;24.06;100.00
54389;BME280;40975;50.390;8.640;2023-06-22T06:57:38;99165.28;;;24.12;100.00
54389;BME280;40975;50.390;8.640;2023-06-22T07:00:08;99165.50;;;24.34;100.00
54389;BME280;40975;50.390;8.640;2023-06-22T07:02:39;99171.41;;;24.43;100.00
54389;BME280;40975;50.390;8.640;2023-06-22T07:05:05;99169.03;;;24.58;100.00
54389;BME280;40975;50.390;8.640;2023-06-22T07:07:31;99156.66;;;24.74;100.00
54389;BME280;40975;50.390;8.640;2023-06-22T07:09:57;99163.38;;;25.12;100.00
54389;BME280;40975;50.390;8.640;2023-06-22T07:12:22;99156.88;;;25.54;100.00
54389;BME280;40975;50.390;8.640;2023-06-22T07:14:47;99145.84;;;25.44;100.00
54389;BME280;40975;50.390;8.640;2023-06-22T07:17:13;99149.41;;;25.61;99.97
54389;BME280;40975;50.390;8.640;2023-06-22T07:19:38;99159.19;;;25.63;100.00
54389;BME280;40975;50.390;8.640;2023-06-22T07:22:04;99154.84;;;25.79;99.65
54389;BME280;40975;50.390;8.640;2023-06-22T07:24:29;99152.78;;;26.03;97.05
54389;BME280;40975;50.390;8.640;2023-06-22T07:26:54;99152.28;;;26.40;96.40
54389;BME280;40975;50.390;8.640;2023-06-22T07:29:20;99153.69;;;26.82;92.13
54389;BME280;40975;50.390;8.640;2023-06-22T07:31:47;99146.94;;;27.12;90.73
54389;BME280;40975;50.390;8.640;2023-06-22T07:34:12;99156.63;;;27.47;89.45
54389;BME280;40975;50.390;8.640;2023-06-22T07:36:38;99146.53;;;27.75;86.15
54389;BME280;40975;50.390;8.640;2023-06-22T07:39:03;99149.31;;;28.13;85.72
54389;BME280;40975;50.390;8.640;2023-06-22T07:41:29;99149.00;;;28.52;84.37
54389;BME280;40975;50.390;8.640;2023-06-22T07:43:54;99147.81;;;28.85;82.12
54389;BME280;40975;50.390;8.640;2023-06-22T07:46:20;99143.28;;;29.12;81.00
54389;BME280;40975;50.390;8.640;2023-06-22T07:48:45;99145.84;;;29.50;77.03
54389;BME280;40975;50.390;8.640;2023-06-22T07:51:10;99141.69;;;29.31;74.61
54389;BME280;40975;50.390;8.640;2023-06-22T07:53:38;99143.69;;;29.98;74.21
54389;BME280;40975;50.390;8.640;2023-06-22T07:56:05;99144.72;;;30.38;71.51
54389;BME280;40975;50.390;8.640;2023-06-22T07:58:32;99136.78;;;30.52;70.41
54389;BME280;40975;50.390;8.640;2023-06-22T08:00:58;99133.19;;;30.62;69.97
54389;BME280;40975;50.390;8.640;2023-06-22T08:03:23;99133.94;;;30.78;67.01
54389;BME280;40975;50.390;8.640;2023-06-22T08:05:48;99122.03;;;31.04;66.79
54389;BME280;40975;50.390;8.640;2023-06-22T08:08:15;99105.81;;;30.57;66.17
54389;BME280;40975;50.390;8.640;2023-06-22T08:10:40;99103.75;;;30.89;66.00
54389;BME280;40975;50.390;8.640;2023-06-22T08:13:07;99106.34;;;31.20;66.25
54389;BME280;40975;50.390;8.640;2023-06-22T08:15:32;99109.84;;;31.30;64.54
54389;BME280;40975;50.390;8.640;2023-06-22T08:17:57;99108.53;;;31.23;65.65
54389;BME280;40975;50.390;8.640;2023-06-22T08:20:24;99113.19;;;31.62;64.82
54389;BME280;40975;50.390;8.640;2023-06-22T08:22:49;99114.03;;;32.27;62.10
54389;BME280;40975;50.390;8.640;2023-06-22T08:25:15;99109.09;;;32.23;60.45
54389;BME280;40975;50.390;8.640;2023-06-22T08:27:40;99104.72;;;32.47;60.39
54389;BME280;40975;50.390;8.640;2023-06-22T08:30:06;99108.69;;;32.84;58.66
54389;BME280;40975;50.390;8.640;2023-06-22T08:32:32;99113.09;;;33.04;58.50
54389;BME280;40975;50.390;8.640;2023-06-22T08:34:58;99098.16;;;33.29;58.06
54389;BME280;40975;50.390;8.640;2023-06-22T08:37:23;99096.38;;;33.58;57.97
54389;BME280;40975;50.390;8.640;2023-06-22T08:39:50;99096.28;;;33.63;56.96
54389;BME280;40975;50.390;8.640;2023-06-22T08:42:15;99090.16;;;33.99;56.21
54389;BME280;40975;50.390;8.640;2023-06-22T08:44:41;99093.66;;;34.75;54.31
54389;BME280;40975;50.390;8.640;2023-06-22T08:47:06;99092.66;;;34.98;53.00
54389;BME280;40975;50.390;8.640;2023-06-22T08:49:31;99093.81;;;35.66;52.63
54389;BME280;40975;50.390;8.640;2023-06-22T08:51:57;99080.03;;;35.66;49.36
54389;BME280;40975;50.390;8.640;2023-06-22T08:54:22;99092.28;;;36.05;48.69
54389;BME280;40975;50.390;8.640;2023-06-22T08:56:48;99090.72;;;35.90;47.65
54389;BME280;40975;50.390;8.640;2023-06-22T08:59:13;99088.06;;;35.85;47.26
54389;BME280;40975;50.390;8.640;2023-06-22T09:01:38;99074.78;;;35.55;48.22
54389;BME280;40975;50.390;8.640;2023-06-22T09:04:04;99080.81;;;35.89;47.62
54389;BME280;40975;50.390;8.640;2023-06-22T09:06:31;99072.97;;;36.05;46.65
54389;BME280;40975;50.390;8.640;2023-06-22T09:08:57;99071.38;;;36.53;46.68
54389;BME280;40975;50.390;8.640;2023-06-22T09:11:25;99081.03;;;37.17;44.88
54389;BME280;40975;50.390;8.640;2023-06-22T09:13:50;99071.09;;;36.81;44.91
54389;BME280;40975;50.390;8.640;2023-06-22T09:16:17;99074.06;;;37.11;45.35
54389;BME280;40975;50.390;8.640;2023-06-22T09:18:42;99068.81;;;37.36;45.35
54389;BME280;40975;50.390;8.640;2023-06-22T09:21:08;99060.84;;;37.60;45.25
54389;BME280;40975;50.390;8.640;2023-06-22T09:23:33;99058.75;;;37.13;44.66
54389;BME280;40975;50.390;8.640;2023-06-22T09:25:58;99062.28;;;37.67;44.61
54389;BME280;40975;50.390;8.640;2023-06-22T09:28:24;99058.25;;;35.64;47.08
54389;BME280;40975;50.390;8.640;2023-06-22T09:30:49;99054.34;;;34.83;47.75
54389;BME280;40975;50.390;8.640;2023-06-22T09:33:14;99051.75;;;33.75;52.45
54389;BME280;40975;50.390;8.640;2023-06-22T09:35:40;99041.47;;;35.29;48.00
54389;BME280;40975;50.390;8.640;2023-06-22T09:38:05;99027.75;;;34.64;48.39
54389;BME280;40975;50.390;8.640;2023-06-22T09:40:30;99026.94;;;34.36;47.88
54389;BME280;40975;50.390;8.640;2023-06-22T09:43:00;99021.16;;;33.95;50.17
54389;BME280;40975;50.390;8.640;2023-06-22T09:45:25;99019.91;;;33.22;52.80
54389;BME280;40975;50.390;8.640;2023-06-22T09:47:51;99024.16;;;33.33;51.94
54389;BME280;40975;50.390;8.640;2023-06-22T09:50:16;99022.78;;;35.48;48.39
54389;BME280;40975;50.390;8.640;2023-06-22T09:52:41;99016.97;;;36.31;45.72
54389;BME280;40975;50.390;8.640;2023-06-22T09:55:09;99027.34;;;36.74;44.91
54389;BME280;40975;50.390;8.640;2023-06-22T09:57:35;99022.47;;;37.41;43.47
54389;BME280;40975;50.390;8.640;2023-06-22T10:00:00;99018.38;;;36.51;43.46
54389;BME280;40975;50.390;8.640;2023-06-22T10:02:25;99008.63;;;34.82;48.53
54389;BME280;40975;50.390;8.640;2023-06-22T10:04:51;99009.31;;;34.87;49.26
54389;BME280;40975;50.390;8.640;2023-06-22T10:07:16;98998.28;;;35.01;47.64
54389;BME280;40975;50.390;8.640;2023-06-22T10:09:41;99004.59;;;33.68;51.22
54389;BME280;40975;50.390;8.640;2023-06-22T10:12:07;98991.91;;;32.43;54.63
54389;BME280;40975;50.390;8.640;2023-06-22T10:14:32;98983.19;;;32.79;54.46
54389;BME280;40975;50.390;8.640;2023-06-22T10:16:57;98984.34;;;34.05;50.34
54389;BME280;40975;50.390;8.640;2023-06-22T10:19:23;98980.78;;;34.47;49.21
54389;BME280;40975;50.390;8.640;2023-06-22T10:21:48;98973.63;;;34.32;47.84
54389;BME280;40975;50.390;8.640;2023-06-22T10:24:13;98973.63;;;35.05;46.46
54389;BME280;40975;50.390;8.640;2023-06-22T10:26:39;98976.94;;;35.61;45.94
54389;BME280;40975;50.390;8.640;2023-06-22T10:29:04;98966.00;;;36.37;45.27
54389;BME280;40975;50.390;8.640;2023-06-22T10:31:30;98976.25;;;36.45;44.97
54389;BME280;40975;50.390;8.640;2023-06-22T10:33:55;98968.91;;;35.83;44.79
54389;BME280;40975;50.390;8.640;2023-06-22T10:36:21;98954.56;;;36.12;43.90
54389;BME280;40975;50.390;8.640;2023-06-22T10:38:47;98950.84;;;36.25;43.50
54389;BME280;40975;50.390;8.640;2023-06-22T10:41:13;98948.50;;;35.29;44.77
54389;BME280;40975;50.390;8.640;2023-06-22T10:43:38;98947.75;;;35.38;46.08
54389;BME280;40975;50.390;8.640;2023-06-22T10:46:04;98942.34;;;36.04;44.24
54389;BME280;40975;50.390;8.640;2023-06-22T10:48:29;98942.28;;;35.46;45.06
54389;BME280;40975;50.390;8.640;2023-06-22T10:50:54;98939.69;;;35.41;47.29
54389;BME280;40975;50.390;8.640;2023-06-22T10:53:20;98924.28;;;34.72;47.07
54389;BME280;40975;50.390;8.640;2023-06-22T10:55:46;98920.69;;;35.17;46.00
54389;BME280;40975;50.390;8.640;2023-06-22T10:58:11;98914.78;;;35.32;45.94
54389;BME280;40975;50.390;8.640;2023-06-22T11:00:37;98909.25;;;35.32;45.33
54389;BME280;40975;50.390;8.640;2023-06-22T11:03:02;98907.91;;;35.21;46.07
54389;BME280;40975;50.390;8.640;2023-06-22T11:05:28;98894.38;;;35.11;46.47
54389;BME280;40975;50.390;8.640;2023-06-22T11:07:53;98885.16;;;34.47;45.82
54389;BME280;40975;50.390;8.640;2023-06-22T11:10:18;98883.00;;;33.79;48.86
54389;BME280;40975;50.390;8.640;2023-06-22T11:12:43;98883.75;;;33.43;50.03
54389;BME280;40975;50.390;8.640;2023-06-22T11:15:09;98880.72;;;33.87;49.77
54389;BME280;40975;50.390;8.640;2023-06-22T11:17:35;98879.78;;;33.77;47.76
54389;BME280;40975;50.390;8.640;2023-06-22T11:20:01;98867.91;;;34.05;47.38
54389;BME280;40975;50.390;8.640;2023-06-22T11:22:26;98857.97;;;33.95;46.75
54389;BME280;40975;50.390;8.640;2023-06-22T11:24:51;98848.94;;;34.17;46.27
54389;BME280;40975;50.390;8.640;2023-06-22T11:27:17;98842.22;;;34.09;45.55
54389;BME280;40975;50.390;8.640;2023-06-22T11:29:42;98834.19;;;33.85;45.89
54389;BME280;40975;50.390;8.640;2023-06-22T11:32:08;98827.50;;;33.36;47.54
54389;BME280;40975;50.390;8.640;2023-06-22T11:34:33;98829.22;;;33.73;46.69
54389;BME280;40975;50.390;8.640;2023-06-22T11:36:58;98834.63;;;33.64;47.14
54389;BME280;40975;50.390;8.640;2023-06-22T11:39:24;98828.44;;;34.09;43.89
54389;BME280;40975;50.390;8.640;2023-06-22T11:41:49;98814.44;;;33.69;43.89
54389;BME280;40975;50.390;8.640;2023-06-22T11:44:14;98808.31;;;34.23;44.18
54389;BME280;40975;50.390;8.640;2023-06-22T11:46:40;98806.16;;;34.34;42.82
54389;BME280;40975;50.390;8.640;2023-06-22T11:49:05;98801.31;;;34.17;42.74
54389;BME280;40975;50.390;8.640;2023-06-22T11:51:30;98809.00;;;34.43;42.39
54389;BME280;40975;50.390;8.640;2023-06-22T11:53:57;98811.47;;;34.98;43.28
54389;BME280;40975;50.390;8.640;2023-06-22T11:56:22;98806.25;;;34.06;42.86
54389;BME280;40975;50.390;8.640;2023-06-22T11:58:48;98811.59;;;34.25;42.73
54389;BME280;40975;50.390;8.640;2023-06-22T12:01:13;98815.22;;;34.34;44.38
54389;BME280;40975;50.390;8.640;2023-06-22T12:03:40;98802.50;;;34.24;44.27
54389;BME280;40975;50.390;8.640;2023-06-22T12:06:05;98804.97;;;33.75;44.73
54389;BME280;40975;50.390;8.640;2023-06-22T12:08:31;98805.06;;;34.21;45.97
54389;BME280;40975;50.390;8.640;2023-06-22T12:10:56;98802.31;;;34.21;44.63
54389;BME280;40975;50.390;8.640;2023-06-22T12:13:21;98800.88;;;34.01;46.80
54389;BME280;40975;50.390;8.640;2023-06-22T12:15:47;98802.53;;;33.32;46.11
54389;BME280;40975;50.390;8.640;2023-06-22T12:18:12;98795.16;;;33.97;46.39
54389;BME280;40975;50.390;8.640;2023-06-22T12:20:40;98795.19;;;34.20;45.92
54389;BME280;40975;50.390;8.640;2023-06-22T12:23:05;98796.25;;;34.10;46.60
54389;BME280;40975;50.390;8.640;2023-06-22T12:25:30;98796.44;;;34.59;45.62
54389;BME280;40975;50.390;8.640;2023-06-22T12:27:56;98802.88;;;34.46;45.46
54389;BME280;40975;50.390;8.640;2023-06-22T12:30:21;98801.09;;;34.27;45.58
54389;BME280;40975;50.390;8.640;2023-06-22T12:32:46;98784.00;;;33.52;46.60
54389;BME280;40975;50.390;8.640;2023-06-22T12:35:12;98776.06;;;33.50;46.52
54389;BME280;40975;50.390;8.640;2023-06-22T12:37:42;98769.97;;;33.53;48.04
54389;BME280;40975;50.390;8.640;2023-06-22T12:40:08;98774.09;;;33.64;47.52
54389;BME280;40975;50.390;8.640;2023-06-22T12:42:34;98777.78;;;33.60;47.12
54389;BME280;40975;50.390;8.640;2023-06-22T12:44:59;98774.13;;;33.51;46.91
54389;BME280;40975;50.390;8.640;2023-06-22T12:47:24;98759.97;;;33.57;47.31
54389;BME280;40975;50.390;8.640;2023-06-22T12:49:50;98753.75;;;33.52;47.72
54389;BME280;40975;50.390;8.640;2023-06-22T12:52:15;98756.47;;;33.66;47.51